createdAt,value
2018-06-02T00:01:00.372Z,999.90
2018-06-02T00:03:27.030Z,956.97
2018-06-02T00:05:53.695Z,999.90
2018-06-02T00:08:20.340Z,999.90
2018-06-02T00:10:46.991Z,999.90
2018-06-02T00:13:13.635Z,999.90
2018-06-02T00:15:40.280Z,999.90
2018-06-02T00:18:06.955Z,997.87
2018-06-02T00:20:33.610Z,836.10
2018-06-02T00:23:00.261Z,327.08
2018-06-02T00:25:26.883Z,159.02
2018-06-02T00:27:53.742Z,98.70
2018-06-02T00:30:20.398Z,69.18
2018-06-02T00:32:47.158Z,999.90
2018-06-02T00:35:14.088Z,999.90
2018-06-02T00:37:40.769Z,999.90
2018-06-02T00:40:07.443Z,999.90
2018-06-02T00:42:34.126Z,996.50
2018-06-02T00:45:00.760Z,968.35
2018-06-02T00:47:27.423Z,999.90
2018-06-02T00:49:54.061Z,999.90
2018-06-02T00:52:20.719Z,999.90
2018-06-02T00:54:53.038Z,999.90
2018-06-02T00:57:19.688Z,999.90
2018-06-02T00:59:46.335Z,999.90
2018-06-02T01:04:45.790Z,999.90
2018-06-02T01:07:12.468Z,999.90
2018-06-02T01:09:39.130Z,999.90
2018-06-02T01:12:05.781Z,999.90
2018-06-02T01:14:32.434Z,999.90
2018-06-02T01:16:59.068Z,999.90
2018-06-02T01:19:25.756Z,999.90
2018-06-02T01:21:52.380Z,999.90
2018-06-02T01:24:19.130Z,999.90
2018-06-02T01:26:45.772Z,999.90
2018-06-02T01:29:12.434Z,999.90
2018-06-02T01:31:39.091Z,999.90
2018-06-02T01:34:05.749Z,999.90
2018-06-02T01:36:32.410Z,999.90
2018-06-02T01:38:59.074Z,999.90
2018-06-02T01:41:25.717Z,999.90
2018-06-02T01:43:52.383Z,999.90
2018-06-02T01:46:19.147Z,999.90
2018-06-02T01:48:45.797Z,999.90
2018-06-02T01:51:12.448Z,256.87
2018-06-02T01:53:39.095Z,44.60
2018-06-02T01:56:05.759Z,43.35
2018-06-02T01:58:32.489Z,50.50
2018-06-02T02:00:59.138Z,41.95
2018-06-02T02:03:25.793Z,45.70
2018-06-02T02:05:52.490Z,46.10
2018-06-02T02:08:19.151Z,46.30
2018-06-02T02:10:45.810Z,42.95
2018-06-02T02:13:12.434Z,40.58
2018-06-02T02:15:39.105Z,43.22
2018-06-02T02:18:05.718Z,44.28
2018-06-02T02:20:32.362Z,45.20
2018-06-02T02:22:58.991Z,45.63
2018-06-02T02:25:26.633Z,43.65
2018-06-02T02:27:53.257Z,43.38
2018-06-02T02:30:19.895Z,41.92
2018-06-02T02:32:46.551Z,44.00
2018-06-02T02:35:13.199Z,44.45
2018-06-02T02:37:39.839Z,42.72
2018-06-02T02:40:06.483Z,40.88
2018-06-02T02:42:33.140Z,43.65
2018-06-02T02:44:59.765Z,40.67
2018-06-02T02:47:26.402Z,39.45
2018-06-02T02:49:53.045Z,37.50
2018-06-02T02:52:19.668Z,34.63
2018-06-02T02:54:46.303Z,36.15
2018-06-02T02:57:16.161Z,35.47
2018-06-02T02:59:42.803Z,32.92
2018-06-02T03:04:42.259Z,30.55
2018-06-02T03:07:08.899Z,28.95
2018-06-02T03:09:35.532Z,29.25
2018-06-02T03:12:02.179Z,29.55
2018-06-02T03:14:28.812Z,26.62
2018-06-02T03:19:27.734Z,28.27
2018-06-02T03:21:54.396Z,26.10
2018-06-02T03:24:21.018Z,27.40
2018-06-02T03:26:47.743Z,25.70
2018-06-02T03:29:14.384Z,24.85
2018-06-02T03:31:41.019Z,26.00
2018-06-02T03:34:07.662Z,25.83
2018-06-02T03:36:34.314Z,25.67
2018-06-02T03:39:00.957Z,26.42
2018-06-02T03:41:27.599Z,25.73
2018-06-02T03:43:54.250Z,28.08
2018-06-02T03:46:20.875Z,24.75
2018-06-02T03:48:47.546Z,25.80
2018-06-02T03:51:14.211Z,25.20
2018-06-02T03:53:40.882Z,24.60
2018-06-02T03:56:07.518Z,24.50
2018-06-02T03:58:34.166Z,23.83
2018-06-02T04:01:00.800Z,23.73
2018-06-02T04:03:27.431Z,23.48
2018-06-02T04:05:54.079Z,21.85
2018-06-02T04:08:20.691Z,22.50
2018-06-02T04:10:47.338Z,24.08
2018-06-02T04:13:13.968Z,18.80
2018-06-02T04:15:40.623Z,20.55
2018-06-02T04:18:08.271Z,18.25
2018-06-02T04:23:10.777Z,20.08
2018-06-02T04:25:37.507Z,18.87
2018-06-02T04:28:04.154Z,16.83
2018-06-02T04:30:30.809Z,16.80
2018-06-02T04:32:57.442Z,17.70
2018-06-02T04:35:24.101Z,17.65
2018-06-02T04:37:50.720Z,16.62
2018-06-02T04:40:21.387Z,17.23
2018-06-02T04:42:48.051Z,17.05
2018-06-02T04:45:14.713Z,17.70
2018-06-02T04:47:41.344Z,15.82
2018-06-02T04:50:08.004Z,16.98
2018-06-02T04:52:34.681Z,18.05
2018-06-02T04:55:01.300Z,15.65
2018-06-02T04:57:27.935Z,15.18
2018-06-02T04:59:54.585Z,17.23
2018-06-02T05:02:21.218Z,15.68
2018-06-02T05:04:47.843Z,14.05
2018-06-02T05:07:17.722Z,15.80
2018-06-02T05:09:44.344Z,15.32
2018-06-02T05:12:10.985Z,16.60
2018-06-02T05:14:37.711Z,15.68
2018-06-02T05:17:04.363Z,14.10
2018-06-02T05:19:34.210Z,15.70
2018-06-02T05:22:00.863Z,15.40
2018-06-02T05:24:27.483Z,15.73
2018-06-02T05:26:54.113Z,15.38
2018-06-02T05:29:20.738Z,16.02
2018-06-02T05:31:47.368Z,17.30
2018-06-02T05:34:13.998Z,16.27
2018-06-02T05:36:40.655Z,16.92
2018-06-02T05:39:07.275Z,19.02
2018-06-02T05:41:33.941Z,19.00
2018-06-02T05:44:00.588Z,19.70
2018-06-02T05:46:27.239Z,23.90
2018-06-02T05:48:53.851Z,21.30
2018-06-02T05:51:20.504Z,21.12
2018-06-02T05:53:47.139Z,23.15
2018-06-02T05:56:13.762Z,23.48
2018-06-02T05:58:41.688Z,22.77
2018-06-02T06:01:08.323Z,25.02
2018-06-02T06:06:07.369Z,25.90
2018-06-02T06:08:34.058Z,23.90
2018-06-02T06:11:00.683Z,26.98
2018-06-02T06:13:27.335Z,23.83
2018-06-02T06:15:53.964Z,24.60
2018-06-02T06:20:52.995Z,24.05
2018-06-02T06:23:19.667Z,25.62
2018-06-02T06:25:46.303Z,26.50
2018-06-02T06:28:12.966Z,28.20
2018-06-02T06:30:39.611Z,27.30
2018-06-02T06:33:06.295Z,26.12
2018-06-02T06:35:32.882Z,29.25
2018-06-02T06:37:59.519Z,28.52
2018-06-02T06:40:26.150Z,28.67
2018-06-02T06:42:52.783Z,27.90
2018-06-02T06:47:52.000Z,30.55
2018-06-02T06:50:18.655Z,31.98
2018-06-02T06:52:45.560Z,28.87
2018-06-02T06:55:12.222Z,32.38
2018-06-02T06:57:38.906Z,30.75
2018-06-02T07:00:05.521Z,32.40
2018-06-02T07:02:32.174Z,31.60
2018-06-02T07:04:58.812Z,31.75
2018-06-02T07:07:25.446Z,38.03
2018-06-02T07:09:52.145Z,36.92
2018-06-02T07:12:18.782Z,35.33
2018-06-02T07:14:45.449Z,25.80
2018-06-02T07:17:12.120Z,23.30
2018-06-02T07:19:38.751Z,22.55
2018-06-02T07:22:05.427Z,28.12
2018-06-02T07:24:32.086Z,33.30
2018-06-02T07:27:02.189Z,59.88
2018-06-02T07:29:28.853Z,25.85
2018-06-02T07:31:55.565Z,26.52
2018-06-02T07:34:22.203Z,25.12
2018-06-02T07:36:48.876Z,21.48
2018-06-02T07:39:15.565Z,23.12
2018-06-02T07:41:42.276Z,24.12
2018-06-02T07:44:08.984Z,25.17
2018-06-02T07:46:35.686Z,28.30
2018-06-02T07:49:02.315Z,22.67
2018-06-02T07:51:28.993Z,23.17
2018-06-02T07:53:55.628Z,22.45
2018-06-02T07:56:22.288Z,23.92
2018-06-02T07:58:48.935Z,23.40
2018-06-02T08:01:19.557Z,21.73
2018-06-02T08:03:46.244Z,23.25
2018-06-02T08:06:12.892Z,22.83
2018-06-02T08:08:39.584Z,21.00
2018-06-02T08:11:06.188Z,22.10
2018-06-02T08:13:32.833Z,23.62
2018-06-02T08:15:59.478Z,25.25
2018-06-02T08:18:26.126Z,22.80
2018-06-02T08:20:56.542Z,35.70
2018-06-02T08:23:23.173Z,23.93
2018-06-02T08:25:49.830Z,24.55
2018-06-02T08:28:16.459Z,35.53
2018-06-02T08:30:43.118Z,36.75
2018-06-02T08:33:09.750Z,36.72
2018-06-02T08:35:36.402Z,38.28
2018-06-02T08:38:08.998Z,38.65
2018-06-02T08:40:38.801Z,41.00
2018-06-02T08:43:05.483Z,41.60
2018-06-02T08:45:32.097Z,38.33
2018-06-02T08:47:58.792Z,35.53
2018-06-02T08:50:25.442Z,37.63
2018-06-02T08:52:52.212Z,34.80
2018-06-02T08:55:18.840Z,36.40
2018-06-02T08:57:45.477Z,26.17
2018-06-02T09:00:12.125Z,28.08
2018-06-02T09:02:38.792Z,27.17
2018-06-02T09:05:05.442Z,29.37
2018-06-02T09:07:32.094Z,17.23
2018-06-02T09:09:58.735Z,13.15
2018-06-02T09:12:25.461Z,17.02
2018-06-02T09:14:52.109Z,15.83
2018-06-02T09:17:18.836Z,15.53
2018-06-02T09:19:45.478Z,19.07
2018-06-02T09:22:12.123Z,18.03
2018-06-02T09:24:38.821Z,20.90
2018-06-02T09:27:05.459Z,21.80
2018-06-02T09:29:32.135Z,23.52
2018-06-02T09:31:58.955Z,25.63
2018-06-02T09:34:25.643Z,30.42
2018-06-02T09:36:53.596Z,31.92
2018-06-02T09:41:52.248Z,19.27
2018-06-02T09:44:18.919Z,26.20
2018-06-02T09:46:45.572Z,26.93
2018-06-02T09:49:12.294Z,28.07
2018-06-02T09:51:38.925Z,24.70
2018-06-02T09:54:05.683Z,26.00
2018-06-02T09:56:32.315Z,24.00
2018-06-02T09:58:59.052Z,26.97
2018-06-02T10:01:25.694Z,25.23
2018-06-02T10:03:52.374Z,22.50
2018-06-02T10:06:19.092Z,24.80
2018-06-02T10:08:45.819Z,23.60
2018-06-02T10:11:16.663Z,23.60
2018-06-02T10:13:43.383Z,21.33
2018-06-02T10:16:10.056Z,22.83
2018-06-02T10:18:36.711Z,21.30
2018-06-02T10:21:03.397Z,17.40
2018-06-02T10:23:30.099Z,18.70
2018-06-02T10:25:56.760Z,18.60
2018-06-02T10:28:23.428Z,21.33
2018-06-02T10:30:50.115Z,20.23
2018-06-02T10:33:20.895Z,19.03
2018-06-02T10:35:47.559Z,19.60
2018-06-02T10:38:17.133Z,21.40
2018-06-02T10:40:44.040Z,19.23
2018-06-02T10:43:10.705Z,19.40
2018-06-02T10:45:37.417Z,18.97
2018-06-02T10:48:07.971Z,21.90
2018-06-02T10:50:34.664Z,22.30
2018-06-02T10:53:01.314Z,21.17
2018-06-02T10:55:28.007Z,13.97
2018-06-02T10:57:54.659Z,15.00
2018-06-02T11:00:21.324Z,16.43
2018-06-02T11:02:48.014Z,13.20
2018-06-02T11:05:14.840Z,18.70
2018-06-02T11:07:44.046Z,18.63
2018-06-02T11:10:10.786Z,16.57
2018-06-02T11:12:37.439Z,14.83
2018-06-02T11:15:04.100Z,17.23
2018-06-02T11:17:30.804Z,15.30
2018-06-02T11:19:57.454Z,14.90
2018-06-02T11:22:24.903Z,14.50
2018-06-02T11:24:51.608Z,17.23
2018-06-02T11:27:18.296Z,17.57
2018-06-02T11:29:45.013Z,18.17
2018-06-02T11:32:11.712Z,15.63
2018-06-02T11:34:38.360Z,17.83
2018-06-02T11:37:05.056Z,16.40
2018-06-02T11:39:31.727Z,16.50
2018-06-02T11:41:58.418Z,17.30
2018-06-02T11:44:25.116Z,17.40
2018-06-02T11:46:51.871Z,13.70
2018-06-02T11:49:18.514Z,14.83
2018-06-02T11:51:45.202Z,15.07
2018-06-02T11:54:11.848Z,15.63
2018-06-02T11:56:40.493Z,14.07
2018-06-02T11:59:08.198Z,13.80
2018-06-02T12:01:34.913Z,18.17
2018-06-02T12:04:01.629Z,22.20
2018-06-02T12:06:28.311Z,27.57
2018-06-02T12:08:54.938Z,30.30
2018-06-02T12:11:21.628Z,30.53
2018-06-02T12:13:48.350Z,26.60
2018-06-02T12:16:15.067Z,29.10
2018-06-02T12:18:41.814Z,28.15
2018-06-02T12:21:08.499Z,28.97
2018-06-02T12:23:35.150Z,31.13
2018-06-02T12:26:01.958Z,31.33
2018-06-02T12:28:28.921Z,28.10
2018-06-02T12:30:55.606Z,26.77
2018-06-02T12:33:25.653Z,26.20
2018-06-02T12:35:52.330Z,23.83
2018-06-02T12:38:18.979Z,24.47
2018-06-02T12:40:45.614Z,23.03
2018-06-02T12:43:12.278Z,22.77
2018-06-02T12:45:38.927Z,26.00
2018-06-02T12:48:08.913Z,24.65
2018-06-02T12:50:35.582Z,24.37
2018-06-02T12:53:02.254Z,20.80
2018-06-02T12:55:28.904Z,25.67
2018-06-02T12:57:55.564Z,25.03
2018-06-02T13:00:22.253Z,20.90
2018-06-02T13:02:48.893Z,17.70
2018-06-02T13:05:15.582Z,18.50
2018-06-02T13:07:42.235Z,19.57
2018-06-02T13:10:08.879Z,17.93
2018-06-02T13:12:35.525Z,17.50
2018-06-02T13:15:02.219Z,22.50
2018-06-02T13:17:28.878Z,21.60
2018-06-02T13:19:55.520Z,20.80
2018-06-02T13:22:22.181Z,21.53
2018-06-02T13:24:48.824Z,20.10
2018-06-02T13:27:15.456Z,21.93
2018-06-02T13:29:42.103Z,17.93
2018-06-02T13:32:08.818Z,16.13
2018-06-02T13:34:35.481Z,16.27
2018-06-02T13:37:02.157Z,17.57
2018-06-02T13:39:29.837Z,16.90
2018-06-02T13:41:56.478Z,15.90
2018-06-02T13:44:23.164Z,17.67
2018-06-02T13:46:49.824Z,17.87
2018-06-02T13:49:16.476Z,15.57
2018-06-02T13:51:43.234Z,14.47
2018-06-02T13:54:13.316Z,13.67
2018-06-02T13:56:40.333Z,20.10
2018-06-02T13:59:07.001Z,22.10
2018-06-02T14:01:33.676Z,25.90
2018-06-02T14:04:00.323Z,26.80
2018-06-02T14:06:26.972Z,27.20
2018-06-02T14:08:53.600Z,28.67
2018-06-02T14:11:20.251Z,28.53
2018-06-02T14:13:46.890Z,28.50
2018-06-02T14:16:13.512Z,19.33
2018-06-02T14:18:40.146Z,19.83
2018-06-02T14:21:06.832Z,20.93
2018-06-02T14:23:33.476Z,24.03
2018-06-02T14:26:00.113Z,27.37
2018-06-02T14:28:26.760Z,29.70
2018-06-02T14:30:53.460Z,32.20
2018-06-02T14:33:20.106Z,30.03
2018-06-02T14:35:46.730Z,29.30
2018-06-02T14:38:13.450Z,32.30
2018-06-02T14:40:40.036Z,35.43
2018-06-02T14:43:06.690Z,29.83
2018-06-02T14:45:33.314Z,33.97
2018-06-02T14:48:01.139Z,33.27
2018-06-02T14:50:27.775Z,32.40
2018-06-02T14:52:54.475Z,33.60
2018-06-02T14:55:21.109Z,23.30
2018-06-02T14:57:47.753Z,27.63
2018-06-02T15:00:14.385Z,24.90
2018-06-02T15:02:41.069Z,28.60
2018-06-02T15:05:07.698Z,25.30
2018-06-02T15:07:34.395Z,22.70
2018-06-02T15:10:01.017Z,22.80
2018-06-02T15:12:27.647Z,19.87
2018-06-02T15:14:54.304Z,26.83
2018-06-02T15:17:20.944Z,29.13
2018-06-02T15:19:47.574Z,28.93
2018-06-02T15:22:14.199Z,25.40
2018-06-02T15:24:40.844Z,29.30
2018-06-02T15:27:07.480Z,31.23
2018-06-02T15:29:37.949Z,30.63
2018-06-02T15:32:04.588Z,30.63
2018-06-02T15:34:31.269Z,28.07
2018-06-02T15:36:57.907Z,26.77
2018-06-02T15:39:25.197Z,27.40
2018-06-02T15:41:51.848Z,26.90
2018-06-02T15:46:50.902Z,25.00
2018-06-02T15:49:17.628Z,29.43
2018-06-02T15:51:45.054Z,26.20
2018-06-02T15:54:11.724Z,28.07
2018-06-02T15:56:38.338Z,24.40
2018-06-02T15:59:05.033Z,26.00
2018-06-02T16:01:31.677Z,23.60
2018-06-02T16:03:58.371Z,24.47
2018-06-02T16:06:25.007Z,23.30
2018-06-02T16:08:51.650Z,25.17
2018-06-02T16:11:18.348Z,21.77
2018-06-02T16:13:44.963Z,22.80
2018-06-02T16:16:11.646Z,21.40
2018-06-02T16:18:38.268Z,21.07
2018-06-02T16:21:04.965Z,20.77
2018-06-02T16:23:31.616Z,27.43
2018-06-02T16:25:58.282Z,29.37
2018-06-02T16:28:24.919Z,23.23
2018-06-02T16:30:51.557Z,20.90
2018-06-02T16:33:18.198Z,18.60
2018-06-02T16:35:45.032Z,17.03
2018-06-02T16:38:11.664Z,16.43
2018-06-02T16:40:38.342Z,16.57
2018-06-02T16:43:04.959Z,14.27
2018-06-02T16:45:31.664Z,14.70
2018-06-02T16:47:58.281Z,15.50
2018-06-02T16:50:24.939Z,15.20
2018-06-02T16:52:51.594Z,17.40
2018-06-02T16:55:18.272Z,18.00
2018-06-02T16:57:44.892Z,16.90
2018-06-02T17:00:11.531Z,17.10
2018-06-02T17:02:42.114Z,17.43
2018-06-02T17:05:08.756Z,15.87
2018-06-02T17:07:39.196Z,16.53
2018-06-02T17:10:05.828Z,19.30
2018-06-02T17:12:32.464Z,17.03
2018-06-02T17:14:59.129Z,20.97
2018-06-02T17:17:25.777Z,19.13
2018-06-02T17:19:52.466Z,19.20
2018-06-02T17:22:19.115Z,20.50
2018-06-02T17:24:45.737Z,16.10
2018-06-02T17:27:12.442Z,15.00
2018-06-02T17:29:39.075Z,13.90
2018-06-02T17:32:05.741Z,18.53
2018-06-02T17:34:32.420Z,16.00
2018-06-02T17:36:59.082Z,17.03
2018-06-02T17:39:25.733Z,20.50
2018-06-02T17:41:52.443Z,11.27
2018-06-02T17:44:19.106Z,11.33
2018-06-02T17:46:45.740Z,11.13
2018-06-02T17:49:12.367Z,10.20
2018-06-02T17:51:39.197Z,8.70
2018-06-02T17:54:05.836Z,9.47
2018-06-02T17:56:32.576Z,11.33
2018-06-02T17:58:59.228Z,14.73
2018-06-02T18:01:25.840Z,14.17
2018-06-02T18:03:55.600Z,12.10
2018-06-02T18:06:22.237Z,14.33
2018-06-02T18:08:48.902Z,15.90
2018-06-02T18:11:15.526Z,14.37
2018-06-02T18:13:42.277Z,15.73
2018-06-02T18:16:08.936Z,14.63
2018-06-02T18:18:35.644Z,14.40
2018-06-02T18:21:08.508Z,13.20
2018-06-02T18:23:35.153Z,13.10
2018-06-02T18:26:01.782Z,15.73
2018-06-02T18:28:28.417Z,13.80
2018-06-02T18:30:55.077Z,12.83
2018-06-02T18:33:21.720Z,13.13
2018-06-02T18:35:48.427Z,12.60
2018-06-02T18:38:15.064Z,15.53
2018-06-02T18:40:41.738Z,45.40
2018-06-02T18:43:08.372Z,14.90
2018-06-02T18:45:35.024Z,15.50
2018-06-02T18:48:01.647Z,14.10
2018-06-02T18:53:01.264Z,15.13
2018-06-02T18:55:27.966Z,13.87
2018-06-02T18:57:54.589Z,13.47
2018-06-02T19:02:53.247Z,14.70
2018-06-02T19:05:23.505Z,16.80
2018-06-02T19:07:50.143Z,14.73
2018-06-02T19:10:16.816Z,15.97
2018-06-02T19:12:43.464Z,15.57
2018-06-02T19:15:10.182Z,16.47
2018-06-02T19:17:36.877Z,14.40
2018-06-02T19:20:03.543Z,15.20
2018-06-02T19:22:31.228Z,15.70
2018-06-02T19:24:57.846Z,16.65
2018-06-02T19:27:24.545Z,14.67
2018-06-02T19:29:51.232Z,15.20
2018-06-02T19:32:17.883Z,17.42
2018-06-02T19:34:44.533Z,18.58
2018-06-02T19:37:12.195Z,15.85
2018-06-02T19:39:38.861Z,16.30
2018-06-02T19:42:05.554Z,15.38
2018-06-02T19:44:32.199Z,15.03
2018-06-02T19:46:58.840Z,16.03
2018-06-02T19:49:25.470Z,16.48
2018-06-02T19:51:52.116Z,14.70
2018-06-02T19:54:18.823Z,15.18
2018-06-02T19:56:45.565Z,14.82
2018-06-02T19:59:12.279Z,14.10
2018-06-02T20:01:42.129Z,13.60
2018-06-02T20:04:12.729Z,13.18
2018-06-02T20:06:39.418Z,16.17
2018-06-02T20:09:06.079Z,15.00
2018-06-02T20:11:32.759Z,14.15
2018-06-02T20:13:59.418Z,15.00
2018-06-02T20:16:30.054Z,16.65
2018-06-02T20:19:00.042Z,15.82
2018-06-02T20:21:26.807Z,13.70
2018-06-02T20:23:53.447Z,14.60
2018-06-02T20:26:20.097Z,13.90
2018-06-02T20:28:46.785Z,14.95
2018-06-02T20:31:13.439Z,15.20
2018-06-02T20:33:43.970Z,16.00
2018-06-02T20:36:10.732Z,14.98
2018-06-02T20:38:37.360Z,14.95
2018-06-02T20:41:04.008Z,14.82
2018-06-02T20:43:30.676Z,16.15
2018-06-02T20:45:57.403Z,15.77
2018-06-02T20:51:32.741Z,14.40
2018-06-02T20:54:00.149Z,16.10
2018-06-02T20:56:27.556Z,14.95
2018-06-02T20:58:55.202Z,16.05
2018-06-02T21:01:22.603Z,15.40
2018-06-02T21:03:50.136Z,17.00
2018-06-02T21:06:17.477Z,17.05
2018-06-02T21:08:44.888Z,16.25
2018-06-02T21:11:12.245Z,14.45
2018-06-02T21:13:40.350Z,16.85
2018-06-02T21:16:07.841Z,14.47
2018-06-02T21:18:35.774Z,17.57
2018-06-02T21:21:03.165Z,14.63
2018-06-02T21:23:30.604Z,17.57
2018-06-02T21:25:58.878Z,15.10
2018-06-02T21:28:26.296Z,16.65
2018-06-02T21:30:53.729Z,14.47
2018-06-02T21:33:21.193Z,15.95
2018-06-02T21:35:48.528Z,15.32
2018-06-02T21:38:16.144Z,15.10
2018-06-02T21:40:43.568Z,15.80
2018-06-02T21:43:10.948Z,16.20
2018-06-02T21:45:38.318Z,16.48
2018-06-02T21:48:05.667Z,15.70
2018-06-02T21:50:33.070Z,15.45
2018-06-02T21:53:00.572Z,15.45
2018-06-02T21:55:28.017Z,20.45
2018-06-02T21:57:55.291Z,19.50
2018-06-02T22:00:22.758Z,17.23
2018-06-02T22:02:50.061Z,20.37
2018-06-02T22:05:17.418Z,19.87
2018-06-02T22:07:44.818Z,17.32
2018-06-02T22:10:12.143Z,18.85
2018-06-02T22:12:39.533Z,19.00
2018-06-02T22:15:06.916Z,16.62
2018-06-02T22:17:34.337Z,18.45
2018-06-02T22:20:01.937Z,16.70
2018-06-02T22:22:29.893Z,19.12
2018-06-02T22:24:57.295Z,19.23
2018-06-02T22:27:24.660Z,17.30
2018-06-02T22:29:51.984Z,17.50
2018-06-02T22:32:19.496Z,19.57
2018-06-02T22:34:46.884Z,18.05
2018-06-02T22:37:14.303Z,19.77
2018-06-02T22:39:45.025Z,17.40
2018-06-02T22:42:12.448Z,21.05
2018-06-02T22:44:39.789Z,20.05
2018-06-02T22:47:07.224Z,18.05
2018-06-02T22:49:34.643Z,17.70
2018-06-02T22:52:02.199Z,17.85
2018-06-02T22:54:29.615Z,18.92
2018-06-02T22:56:57.058Z,17.30
2018-06-02T22:59:24.834Z,18.92
2018-06-02T23:01:52.831Z,18.50
2018-06-02T23:04:20.247Z,19.73
2018-06-02T23:06:47.952Z,19.35
2018-06-02T23:09:19.491Z,19.62
2018-06-02T23:11:46.839Z,20.85
2018-06-02T23:14:14.157Z,20.05
2018-06-02T23:16:41.432Z,19.15
2018-06-02T23:19:08.929Z,20.72
2018-06-02T23:21:36.260Z,22.22
2018-06-02T23:24:03.591Z,20.10
2018-06-02T23:26:30.899Z,20.17
2018-06-02T23:28:58.263Z,22.10
2018-06-02T23:31:25.603Z,21.55
2018-06-02T23:33:56.569Z,20.12
2018-06-02T23:36:23.850Z,21.05
2018-06-02T23:38:51.201Z,23.07
2018-06-02T23:41:18.499Z,19.40
2018-06-02T23:43:45.860Z,21.45
2018-06-02T23:46:13.209Z,20.37
2018-06-02T23:48:40.579Z,23.12
2018-06-02T23:51:07.917Z,22.27
2018-06-02T23:53:35.602Z,21.02
2018-06-02T23:56:03.003Z,22.30
2018-06-02T23:58:31.011Z,21.52
